Time;durP1;ratioP1;P1;durP2;ratioP2;P2;SDS_P1;SDS_P2;PMS_P1;PMS_P2;Temp;Humidity;BMP_temperature;BMP_pressure;BME280_temperature;BME280_humidity;BME280_pressure;Samples;Min_cycle;Max_cycle;Signal;HPM_P1;HPM_P2
2021/09/07 00:01:44;;;;;;;6.72;4.10;;;;;;;20.57;66.23;102408.47;4984829;28;104521;-49
2021/09/07 00:04:11;;;;;;;7.50;4.22;;;;;;;20.58;66.23;102412.88;4983560;28;104491;-49
2021/09/07 00:06:39;;;;;;;6.78;4.03;;;;;;;20.58;66.37;102409.31;4986179;28;102902;-48
2021/09/07 00:09:05;;;;;;;5.45;3.55;;;;;;;20.57;66.43;102407.66;4985466;28;102359;-48
2021/09/07 00:11:33;;;;;;;5.18;3.65;;;;;;;20.58;66.14;102412.06;4985792;28;103011;-49
2021/09/07 00:14:00;;;;;;;6.38;3.83;;;;;;;20.58;66.44;102414.84;4987064;28;102063;-48
2021/09/07 00:16:28;;;;;;;6.80;4.28;;;;;;;20.57;66.42;102408.47;4968590;28;102782;-48
2021/09/07 00:18:55;;;;;;;6.93;3.97;;;;;;;20.56;66.37;102406.84;4984674;28;102597;-48
2021/09/07 00:21:21;;;;;;;5.85;3.80;;;;;;;20.57;66.26;102414.00;4986138;28;102654;-49
2021/09/07 00:23:51;;;;;;;8.60;3.92;;;;;;;20.56;66.33;102406.84;4999674;28;102451;-49
2021/09/07 00:26:18;;;;;;;7.50;4.10;;;;;;;20.58;66.95;102409.31;4995297;28;102414;-49
2021/09/07 00:28:46;;;;;;;6.75;4.22;;;;;;;20.57;66.49;102407.66;4984271;28;102907;-49
2021/09/07 00:31:13;;;;;;;6.75;3.83;;;;;;;20.56;66.49;102406.84;4985874;28;102748;-49
2021/09/07 00:33:41;;;;;;;5.03;3.92;;;;;;;20.56;66.50;102403.25;4986230;28;102304;-49
2021/09/07 00:36:08;;;;;;;6.20;3.88;;;;;;;20.55;66.41;102407.13;4986244;28;102161;-49
2021/09/07 00:38:35;;;;;;;6.13;3.50;;;;;;;20.56;66.47;102406.84;4990174;28;102767;-48
2021/09/07 00:41:03;;;;;;;5.45;3.45;;;;;;;20.56;66.67;102403.25;4988702;28;102922;-48
2021/09/07 00:43:30;;;;;;;5.75;3.50;;;;;;;20.56;66.74;102400.50;4986648;28;103433;-49
2021/09/07 00:45:57;;;;;;;5.82;3.47;;;;;;;20.56;66.51;102406.03;4987161;28;103710;-48
2021/09/07 00:48:24;;;;;;;5.95;3.60;;;;;;;20.56;66.68;102406.84;4988926;28;103428;-49
2021/09/07 00:50:52;;;;;;;5.03;3.45;;;;;;;20.55;66.55;102399.66;4988851;28;103055;-48
2021/09/07 00:53:19;;;;;;;4.18;3.22;;;;;;;20.56;66.51;102400.50;4987044;28;102204;-49
2021/09/07 00:55:48;;;;;;;5.45;3.60;;;;;;;20.55;66.82;102398.81;4986547;28;102535;-48
2021/09/07 00:58:16;;;;;;;;;;;;;;;20.56;66.85;102403.25;4973666;28;102714;-49
2021/09/07 01:00:44;;;;;;;5.13;3.92;;;;;;;20.55;66.72;102401.59;4988976;28;102901;-51
2021/09/07 01:03:11;;;;;;;5.40;3.50;;;;;;;20.55;66.52;102398.81;4988149;28;102436;-51
2021/09/07 01:05:38;;;;;;;5.70;3.67;;;;;;;20.55;66.75;102404.34;4989249;28;102481;-49
2021/09/07 01:08:06;;;;;;;6.43;3.83;;;;;;;20.55;66.65;102409.91;4988866;28;102502;-49
2021/09/07 01:10:33;;;;;;;4.82;3.30;;;;;;;20.55;66.69;102398.81;4987768;28;103122;-48
2021/09/07 01:13:01;;;;;;;7.10;3.57;;;;;;;20.54;66.63;102403.53;4993974;28;102095;-49
2021/09/07 01:15:28;;;;;;;5.32;3.20;;;;;;;20.54;66.72;102408.25;4987396;28;102508;-48
2021/09/07 01:17:55;;;;;;;5.88;3.55;;;;;;;20.54;66.73;102402.72;4985914;28;102714;-49
2021/09/07 01:20:22;;;;;;;5.55;3.33;;;;;;;20.55;66.73;102404.34;4983029;28;103759;-49
2021/09/07 01:22:49;;;;;;;5.68;3.17;;;;;;;20.53;66.66;102401.91;4979727;28;102404;-50
2021/09/07 01:25:18;;;;;;;4.63;3.45;;;;;;;20.54;66.77;102399.97;4987419;28;102388;-49
2021/09/07 01:27:45;;;;;;;5.05;3.50;;;;;;;20.53;66.77;102401.09;4989449;28;102638;-48
2021/09/07 01:30:14;;;;;;;4.72;3.00;;;;;;;20.54;66.89;102400.78;4992495;28;103058;-49
2021/09/07 01:32:41;;;;;;;5.03;3.67;;;;;;;20.53;66.75;102399.13;4994895;28;102543;-48
2021/09/07 01:35:09;;;;;;;5.85;3.20;;;;;;;20.53;66.83;102401.09;4985602;28;103306;-49
2021/09/07 01:37:39;;;;;;;5.80;3.40;;;;;;;20.53;66.93;102395.56;4987496;28;102695;-48
2021/09/07 01:40:08;;;;;;;4.90;2.72;;;;;;;20.53;66.94;102398.31;4991451;28;102859;-49
2021/09/07 01:42:36;;;;;;;;;;;;;;;20.53;67.16;102401.09;4987527;28;102204;-49
2021/09/07 01:45:04;;;;;;;5.97;3.60;;;;;;;20.52;66.79;102397.50;4969815;28;102586;-49
2021/09/07 01:47:31;;;;;;;5.80;3.17;;;;;;;20.52;66.90;102403.03;4986613;28;103746;-48
2021/09/07 01:49:58;;;;;;;4.47;3.35;;;;;;;20.52;66.84;102396.66;4988477;28;102739;-49
2021/09/07 01:52:25;;;;;;;4.38;3.20;;;;;;;20.52;66.66;102399.41;4987741;28;102285;-48
2021/09/07 01:54:52;;;;;;;5.72;3.10;;;;;;;20.52;66.85;102399.41;4985107;28;102743;-49
2021/09/07 01:57:20;;;;;;;4.18;3.42;;;;;;;20.52;66.98;102393.88;4991093;28;102822;-49
2021/09/07 01:59:48;;;;;;;5.10;3.22;;;;;;;20.52;66.78;102399.41;4985253;28;103099;-48
2021/09/07 02:02:15;;;;;;;3.90;3.45;;;;;;;20.52;66.79;102399.41;4986048;28;102173;-48
2021/09/07 02:04:45;;;;;;;4.22;3.47;;;;;;;20.51;67.01;102403.31;4991470;28;103985;-49
2021/09/07 02:07:12;;;;;;;4.38;3.45;;;;;;;20.52;66.88;102404.94;4986367;28;103715;-48
2021/09/07 02:09:46;;;;;;;4.60;3.25;;;;;;;20.50;67.08;102408.03;4983780;28;103915;-49
2021/09/07 02:12:13;;;;;;;5.22;3.42;;;;;;;20.51;66.94;102400.56;4987513;28;102578;-49
2021/09/07 02:14:39;;;;;;;4.00;3.60;;;;;;;20.52;66.88;102403.03;4997187;28;102467;-48
2021/09/07 02:17:09;;;;;;;4.78;3.40;;;;;;;20.50;67.09;102408.03;4989071;28;102441;-48
2021/09/07 02:19:35;;;;;;;4.65;2.92;;;;;;;20.51;66.64;102411.59;4984040;28;103562;-49
2021/09/07 02:22:02;;;;;;;4.95;3.05;;;;;;;20.50;66.97;102404.44;4989822;28;102647;-49
2021/09/07 02:24:30;;;;;;;5.25;3.35;;;;;;;20.50;67.06;102404.44;4985906;28;103508;-49
2021/09/07 02:26:56;;;;;;;4.28;3.25;;;;;;;20.49;67.02;102411.06;4986015;28;103241;-49
2021/09/07 02:29:23;;;;;;;4.20;2.90;;;;;;;20.49;66.84;102400.00;4982653;28;103787;-48
2021/09/07 02:31:49;;;;;;;4.05;3.20;;;;;;;20.49;67.05;102405.53;4988470;28;102752;-48
2021/09/07 02:34:17;;;;;;;6.05;3.40;;;;;;;20.49;67.21;102405.53;4984954;28;102643;-48
2021/09/07 02:36:44;;;;;;;4.10;3.13;;;;;;;20.49;66.82;102406.34;4986817;28;102126;-48
2021/09/07 02:39:13;;;;;;;4.30;3.30;;;;;;;20.49;67.08;102402.78;4982902;28;103386;-48
2021/09/07 02:41:40;;;;;;;4.75;3.03;;;;;;;20.48;66.92;102401.09;4995224;28;102557;-48
2021/09/07 02:44:06;;;;;;;4.68;3.75;;;;;;;20.48;67.12;102415.75;4985553;28;102599;-49
2021/09/07 02:46:33;;;;;;;4.45;3.30;;;;;;;20.48;67.03;102409.41;4999864;28;102692;-49
2021/09/07 02:49:01;;;;;;;5.07;3.10;;;;;;;20.47;67.04;102413.31;4999231;28;103102;-48
2021/09/07 02:51:30;;;;;;;4.13;3.28;;;;;;;20.47;66.96;102416.06;4995098;28;102682;-48
2021/09/07 02:53:58;;;;;;;5.13;3.42;;;;;;;20.46;67.13;102415.25;5005638;28;102170;-48
2021/09/07 02:56:24;;;;;;;5.38;2.92;;;;;;;20.45;66.87;102416.38;5001611;28;102560;-48
2021/09/07 02:58:51;;;;;;;3.78;2.85;;;;;;;20.46;66.82;102422.72;4988196;28;103907;-48
2021/09/07 03:01:19;;;;;;;3.90;3.03;;;;;;;20.46;66.73;102422.72;4993972;28;102633;-48
2021/09/07 03:03:45;;;;;;;5.20;3.20;;;;;;;20.45;67.09;102421.06;4983287;28;102887;-48
2021/09/07 03:06:12;;;;;;;4.10;3.15;;;;;;;20.45;66.95;102421.91;4988197;28;103044;-49
2021/09/07 03:08:40;;;;;;;3.72;2.67;;;;;;;20.43;66.89;102418.59;4986700;28;104091;-48
2021/09/07 03:11:06;;;;;;;3.65;2.88;;;;;;;20.45;66.89;102421.06;4984930;28;102499;-48
2021/09/07 03:13:33;;;;;;;5.82;3.20;;;;;;;20.44;66.78;102430.47;4984984;28;102698;-50
2021/09/07 03:16:00;;;;;;;4.28;3.13;;;;;;;20.44;66.88;102430.47;4993234;28;102648;-48
2021/09/07 03:18:26;;;;;;;4.00;2.85;;;;;;;20.44;66.94;102424.94;4969103;28;103901;-49
2021/09/07 03:20:54;;;;;;;5.43;3.50;;;;;;;20.43;66.87;102431.59;4985896;28;102525;-50
2021/09/07 03:23:21;;;;;;;4.55;3.05;;;;;;;20.44;66.97;102430.47;4985083;28;103025;-49
2021/09/07 03:25:49;;;;;;;3.88;2.83;;;;;;;20.43;66.82;102428.84;4984917;28;102467;-48
2021/09/07 03:28:15;;;;;;;5.37;3.43;;;;;;;20.43;66.76;102431.59;4984627;28;103927;-48
2021/09/07 03:30:42;;;;;;;4.13;2.88;;;;;;;20.41;66.82;102429.13;4983307;28;103176;-48
2021/09/07 03:33:09;;;;;;;3.05;2.50;;;;;;;20.42;66.87;102432.75;4982693;28;102701;-48
2021/09/07 03:35:35;;;;;;;5.53;3.10;;;;;;;20.43;66.89;102439.91;4987047;28;103948;-48
2021/09/07 03:38:02;;;;;;;4.07;2.75;;;;;;;20.42;66.69;102438.25;4982057;28;107739;-52
2021/09/07 03:40:29;;;;;;;4.88;2.75;;;;;;;20.42;66.77;102441.03;4985933;28;102448;-48
2021/09/07 03:42:58;;;;;;;3.70;2.97;;;;;;;20.40;66.76;102438.53;4985131;28;102184;-49
2021/09/07 03:45:25;;;;;;;4.05;3.17;;;;;;;20.40;66.80;102436.59;4987363;28;102412;-49
2021/09/07 03:47:52;;;;;;;3.53;2.63;;;;;;;20.39;66.87;102434.97;4986708;28;104013;-48
2021/09/07 03:50:19;;;;;;;5.32;3.28;;;;;;;20.40;66.86;102442.13;4987825;28;102678;-49
2021/09/07 03:52:46;;;;;;;4.85;2.90;;;;;;;20.40;66.61;102444.06;4986395;28;102486;-49
2021/09/07 03:55:13;;;;;;;3.03;2.58;;;;;;;20.40;66.61;102447.66;4995687;28;102801;-48
2021/09/07 03:57:40;;;;;;;3.78;3.08;;;;;;;20.39;66.87;102448.78;4980127;28;103975;-48
2021/09/07 04:00:09;;;;;;;3.63;3.08;;;;;;;20.38;66.78;102449.91;4985140;28;102567;-48
2021/09/07 04:02:38;;;;;;;3.95;2.90;;;;;;;20.38;66.71;102452.69;4985852;28;102265;-49
2021/09/07 04:05:06;;;;;;;3.75;3.10;;;;;;;20.38;66.72;102449.91;4988224;28;102506;-48
2021/09/07 04:07:32;;;;;;;4.33;3.10;;;;;;;20.40;66.69;102449.59;4985164;28;103922;-48
2021/09/07 04:09:59;;;;;;;4.20;2.92;;;;;;;20.40;67.00;102455.13;4986127;28;102244;-48
2021/09/07 04:12:26;;;;;;;4.13;2.90;;;;;;;20.39;66.85;102451.56;4989510;28;102348;-48
2021/09/07 04:14:54;;;;;;;4.30;2.85;;;;;;;20.38;66.94;102449.91;4987033;28;102906;-49
2021/09/07 04:17:22;;;;;;;4.10;2.95;;;;;;;20.38;66.84;102460.97;4985546;28;103919;-49
2021/09/07 04:19:49;;;;;;;3.80;3.22;;;;;;;20.39;66.64;102456.25;4984442;28;102931;-48
2021/09/07 04:22:16;;;;;;;4.45;2.70;;;;;;;20.39;66.67;102465.38;4987461;28;102476;-48
2021/09/07 04:24:42;;;;;;;3.63;2.50;;;;;;;20.38;66.72;102466.50;4989407;28;102367;-49
2021/09/07 04:27:11;;;;;;;4.18;2.63;;;;;;;20.38;66.92;102466.50;4985969;28;103460;-49
2021/09/07 04:29:38;;;;;;;3.85;3.03;;;;;;;20.39;66.93;102467.31;4988151;28;103041;-48
2021/09/07 04:32:05;;;;;;;3.75;2.97;;;;;;;20.38;67.08;102477.56;4987142;28;102695;-49
2021/09/07 04:34:33;;;;;;;4.63;3.15;;;;;;;20.38;67.09;102471.22;4988486;28;102827;-48
2021/09/07 04:37:01;;;;;;;3.35;2.72;;;;;;;20.37;66.84;102472.31;4985829;28;103871;-48
2021/09/07 04:39:28;;;;;;;3.65;2.78;;;;;;;20.37;66.71;102469.56;4988335;28;102505;-49
2021/09/07 04:41:55;;;;;;;3.10;2.75;;;;;;;20.37;66.69;102475.91;4983782;28;102662;-49
2021/09/07 04:44:23;;;;;;;4.03;3.03;;;;;;;20.38;66.82;102476.75;4987521;28;102722;-48
2021/09/07 04:46:50;;;;;;;4.57;2.95;;;;;;;20.38;66.92;102482.28;4969302;28;103809;-49
2021/09/07 04:49:17;;;;;;;4.32;3.03;;;;;;;20.37;66.99;102486.97;4988918;28;102596;-48
2021/09/07 04:51:45;;;;;;;4.18;2.85;;;;;;;20.36;66.95;102485.31;4986249;28;102383;-49
2021/09/07 04:54:12;;;;;;;5.30;3.65;;;;;;;20.37;66.88;102484.19;4987898;28;102555;-51
2021/09/07 04:56:39;;;;;;;5.75;3.38;;;;;;;20.37;67.09;102481.44;4986140;28;103893;-49
2021/09/07 04:59:06;;;;;;;4.93;3.42;;;;;;;20.36;66.88;102487.28;4985947;28;102369;-49
2021/09/07 05:01:33;;;;;;;6.07;4.53;;;;;;;20.36;66.84;102485.31;4981362;28;103494;-49
2021/09/07 05:04:00;;;;;;;5.28;3.78;;;;;;;20.36;66.70;102479.78;4982812;28;102226;-49
2021/09/07 05:06:28;;;;;;;4.32;3.47;;;;;;;20.35;66.75;102497.50;4976428;28;103117;-49
2021/09/07 05:08:57;;;;;;;6.50;4.53;;;;;;;20.35;66.72;102494.75;4972517;28;103503;-49
2021/09/07 05:11:23;;;;;;;5.32;3.60;;;;;;;20.35;66.74;102494.75;4984476;28;102198;-49
2021/09/07 05:13:50;;;;;;;6.28;4.03;;;;;;;20.34;66.69;102493.09;4984063;28;104897;-49
2021/09/07 05:16:17;;;;;;;6.65;4.50;;;;;;;20.33;66.75;102493.38;4981126;28;103969;-50
2021/09/07 05:18:55;;;;;;;5.97;4.00;;;;;;;20.34;66.73;102498.63;4971655;28;103514;-49
2021/09/07 05:21:22;;;;;;;5.75;3.90;;;;;;;20.34;66.75;102501.41;4970097;28;103293;-49
2021/09/07 05:23:52;;;;;;;5.03;3.80;;;;;;;20.34;66.54;102497.78;4973231;28;103536;-49
2021/09/07 05:26:20;;;;;;;5.07;3.95;;;;;;;20.33;66.96;102502.50;4972675;28;104094;-49
2021/09/07 05:28:47;;;;;;;4.88;3.72;;;;;;;20.35;66.66;102499.47;4969126;28;102686;-49
2021/09/07 05:31:14;;;;;;;4.75;3.75;;;;;;;20.34;66.56;102509.69;4972844;28;103738;-48
2021/09/07 05:33:40;;;;;;;4.47;3.47;;;;;;;20.35;66.50;102507.75;4976282;28;102619;-49
2021/09/07 05:36:08;;;;;;;5.07;3.90;;;;;;;20.35;66.60;102514.09;4971810;28;103995;-49
2021/09/07 05:38:34;;;;;;;4.47;3.58;;;;;;;20.34;66.41;102509.69;4977685;28;102812;-50
2021/09/07 05:41:01;;;;;;;5.15;3.67;;;;;;;20.36;66.57;102512.97;4989271;28;102946;-49
2021/09/07 05:43:29;;;;;;;5.32;3.75;;;;;;;20.35;66.34;102511.34;4993915;28;102312;-49
2021/09/07 05:45:56;;;;;;;5.15;3.83;;;;;;;20.37;66.48;102519.31;4986257;28;103870;-49
2021/09/07 05:48:22;;;;;;;6.10;4.15;;;;;;;20.35;66.37;102511.34;4982309;28;102540;-49
2021/09/07 05:50:53;;;;;;;5.40;4.05;;;;;;;20.36;66.38;102515.75;4993347;28;103568;-49
2021/09/07 05:53:19;;;;;;;5.95;4.05;;;;;;;20.38;66.27;102519.03;5004224;28;102059;-49
2021/09/07 05:55:47;;;;;;;5.40;4.03;;;;;;;20.38;66.63;102526.53;5001716;28;103871;-49
2021/09/07 05:58:14;;;;;;;9.55;3.88;;;;;;;20.38;66.52;102516.28;5002654;28;102115;-49
2021/09/07 06:00:41;;;;;;;6.30;4.63;;;;;;;20.38;66.33;102519.03;4984062;28;103006;-49
2021/09/07 06:03:08;;;;;;;4.23;3.60;;;;;;;20.38;66.37;102516.28;4980445;28;102478;-50
2021/09/07 06:05:36;;;;;;;5.07;3.88;;;;;;;20.39;66.13;102526.22;4982951;28;103966;-49
2021/09/07 06:08:04;;;;;;;4.63;3.53;;;;;;;20.39;66.09;102528.97;4987053;28;102665;-49
2021/09/07 06:10:30;;;;;;;5.05;3.95;;;;;;;20.39;65.96;102523.44;4987872;28;102349;-50
2021/09/07 06:12:57;;;;;;;6.25;4.32;;;;;;;20.38;66.08;102521.81;4979667;28;102694;-49
2021/09/07 06:15:24;;;;;;;4.88;3.80;;;;;;;20.39;65.92;102528.97;4988246;28;102962;-49
2021/09/07 06:17:52;;;;;;;5.05;3.83;;;;;;;20.39;65.96;102528.97;5002429;28;101987;-49
2021/09/07 06:20:21;;;;;;;6.37;3.97;;;;;;;20.39;65.96;102528.97;5002351;28;101711;-48
2021/09/07 06:22:52;;;;;;;6.13;3.97;;;;;;;20.39;65.80;102523.44;5003184;28;101946;-49
2021/09/07 06:25:18;;;;;;;4.47;3.63;;;;;;;20.39;65.67;102531.75;5001858;28;103864;-49
2021/09/07 06:27:45;;;;;;;4.97;3.67;;;;;;;20.40;65.98;102532.56;5002462;28;102026;-48
2021/09/07 06:30:12;;;;;;;6.65;4.50;;;;;;;20.39;65.94;102545.56;4985827;28;102060;-49
2021/09/07 06:32:40;;;;;;;6.45;4.40;;;;;;;20.40;65.63;102540.84;4986600;28;102547;-49
2021/09/07 06:35:10;;;;;;;5.88;4.22;;;;;;;20.39;65.54;102534.50;4982385;28;103948;-50
2021/09/07 06:37:37;;;;;;;6.82;4.50;;;;;;;20.39;65.42;102540.03;4986768;28;102338;-49
2021/09/07 06:40:07;;;;;;;5.13;4.50;;;;;;;20.39;65.61;102540.03;4983005;28;102716;-49
2021/09/07 06:42:33;;;;;;;6.63;4.60;;;;;;;20.40;65.54;102538.09;4986648;28;102556;-49
2021/09/07 06:45:00;;;;;;;8.70;5.10;;;;;;;20.40;65.42;102547.22;4979781;28;103938;-49
2021/09/07 06:47:27;;;;;;;7.40;4.40;;;;;;;20.40;65.27;102544.44;4983558;28;102734;-51
2021/09/07 06:49:54;;;;;;;5.90;4.72;;;;;;;20.40;65.32;102549.16;4985284;28;102304;-49
2021/09/07 06:52:23;;;;;;;4.93;4.18;;;;;;;20.40;65.34;102547.22;4965675;28;102597;-50
2021/09/07 06:54:50;;;;;;;5.45;4.22;;;;;;;20.40;65.09;102561.03;4974065;28;103570;-49
2021/09/07 06:57:17;;;;;;;7.13;4.07;;;;;;;20.40;65.16;102555.50;4980381;28;102344;-49
2021/09/07 06:59:44;;;;;;;6.68;4.22;;;;;;;20.42;65.22;102554.41;4989966;28;102340;-50
2021/09/07 07:02:10;;;;;;;6.28;3.70;;;;;;;20.42;65.02;102557.19;4986637;28;102436;-50
2021/09/07 07:04:37;;;;;;;4.70;3.72;;;;;;;20.42;65.04;102557.19;4982873;28;103059;-49
2021/09/07 07:07:04;;;;;;;6.68;4.15;;;;;;;20.42;65.02;102548.88;4986702;28;102363;-49
2021/09/07 07:09:32;;;;;;;6.07;3.88;;;;;;;20.40;65.10;102552.75;4979070;28;103263;-49
2021/09/07 07:12:00;;;;;;;6.20;3.63;;;;;;;20.40;65.01;102552.75;4986191;28;102827;-49
2021/09/07 07:14:27;;;;;;;4.90;3.50;;;;;;;20.43;64.86;102569.88;4987197;28;104109;-50
2021/09/07 07:16:55;;;;;;;4.88;3.20;;;;;;;20.43;64.73;102561.59;4984484;28;102501;-50
2021/09/07 07:19:25;;;;;;;4.97;3.47;;;;;;;20.44;64.65;102571.53;4985825;28;102061;-49
2021/09/07 07:21:51;;;;;;;3.97;3.08;;;;;;;20.42;64.48;102560.75;4986434;28;102759;-49
2021/09/07 07:24:18;;;;;;;4.68;3.33;;;;;;;20.43;64.49;102556.06;4980952;28;103753;-49
2021/09/07 07:26:46;;;;;;;6.88;3.40;;;;;;;20.43;64.50;102567.13;4988961;28;102297;-54
2021/09/07 07:29:13;;;;;;;5.80;3.30;;;;;;;20.42;64.47;102566.28;4997945;28;102896;-49
2021/09/07 07:31:39;;;;;;;3.35;3.03;;;;;;;20.43;64.22;102567.94;5000151;28;101905;-49
2021/09/07 07:34:06;;;;;;;5.18;2.53;;;;;;;20.43;64.36;102564.34;4998425;28;103509;-49
2021/09/07 07:36:33;;;;;;;4.97;2.83;;;;;;;20.45;64.32;102575.91;4991654;28;102080;-50
2021/09/07 07:39:01;;;;;;;5.30;3.20;;;;;;;20.44;63.77;102577.88;4984184;28;102362;-49
2021/09/07 07:41:30;;;;;;;3.97;2.83;;;;;;;20.43;64.22;102567.94;4990577;28;102341;-49
2021/09/07 07:43:58;;;;;;;5.28;2.78;;;;;;;20.44;63.96;102563.22;4986737;28;103884;-49
2021/09/07 07:46:28;;;;;;;4.75;2.88;;;;;;;20.44;63.67;102566.00;4992496;28;103155;-49
2021/09/07 07:48:55;;;;;;;4.30;2.70;;;;;;;20.44;63.40;102569.56;4992173;28;102745;-49
2021/09/07 07:51:22;;;;;;;5.10;2.47;;;;;;;20.45;63.45;102559.31;4987195;28;102895;-49
2021/09/07 07:53:48;;;;;;;5.07;3.17;;;;;;;20.44;63.39;102558.50;4986690;28;105319;-50
2021/09/07 07:56:15;;;;;;;4.68;2.90;;;;;;;20.44;63.12;102563.22;4988550;28;102053;-49
2021/09/07 07:58:43;;;;;;;4.35;2.70;;;;;;;20.45;63.32;102562.09;4989625;28;102349;-49
2021/09/07 08:01:11;;;;;;;6.65;2.47;;;;;;;20.44;62.61;102579.81;4989286;28;102494;-49
2021/09/07 08:03:37;;;;;;;7.13;2.97;;;;;;;20.43;62.44;102578.19;4967474;28;103993;-49
2021/09/07 08:06:04;;;;;;;4.43;2.63;;;;;;;20.43;62.45;102558.81;4986201;28;102544;-50
2021/09/07 08:08:30;;;;;;;8.57;3.33;;;;;;;20.44;62.49;102572.34;4987243;28;102055;-49
2021/09/07 08:10:57;;;;;;;4.53;2.50;;;;;;;20.43;62.28;102578.19;4990133;28;102279;-49
2021/09/07 08:13:23;;;;;;;4.40;2.40;;;;;;;20.45;62.41;102564.84;4988540;28;104404;-50
2021/09/07 08:15:51;;;;;;;4.00;2.40;;;;;;;20.45;62.37;102576.78;4993430;28;102362;-49
2021/09/07 08:18:19;;;;;;;4.38;2.78;;;;;;;20.45;61.90;102565.72;4988536;28;102494;-49
2021/09/07 08:20:48;;;;;;;4.72;2.42;;;;;;;20.46;62.08;102577.59;4989988;28;102314;-49
2021/09/07 08:23:16;;;;;;;3.28;2.25;;;;;;;20.45;61.86;102570.38;4988180;28;109846;-50
2021/09/07 08:25:42;;;;;;;3.22;2.40;;;;;;;20.46;61.68;102574.81;4987749;28;102549;-49
2021/09/07 08:28:09;;;;;;;3.33;2.40;;;;;;;20.47;61.51;102584.75;4987430;28;102607;-49
2021/09/07 08:30:36;;;;;;;4.93;2.38;;;;;;;20.46;61.38;102572.06;4987916;28;102400;-49
2021/09/07 08:33:02;;;;;;;1.98;1.75;;;;;;;20.46;61.21;102577.59;4988667;28;104095;-49
2021/09/07 08:35:30;;;;;;;5.93;2.45;;;;;;;20.45;61.13;102565.72;4987806;28;104160;-49
2021/09/07 08:37:57;;;;;;;3.17;2.30;;;;;;;20.45;61.03;102570.38;4988641;28;102827;-49
2021/09/07 08:40:24;;;;;;;3.97;2.42;;;;;;;20.47;61.13;102562.63;4989231;28;102054;-50
2021/09/07 08:42:50;;;;;;;3.67;2.15;;;;;;;20.46;61.09;102561.81;4989452;28;103752;-50
2021/09/07 08:45:17;;;;;;;2.53;2.03;;;;;;;20.46;60.79;102561.00;4987671;28;102365;-49
2021/09/07 08:47:44;;;;;;;4.20;2.67;;;;;;;20.47;60.47;102557.09;4984757;28;102413;-49
2021/09/07 08:50:12;;;;;;;6.03;2.28;;;;;;;20.47;60.70;102557.94;4989711;28;102605;-49
2021/09/07 08:52:41;;;;;;;3.47;2.40;;;;;;;20.47;60.39;102555.16;4982836;28;104270;-49
2021/09/07 08:55:08;;;;;;;3.60;1.77;;;;;;;20.48;60.57;102553.22;4986351;28;102815;-49
2021/09/07 08:57:36;;;;;;;4.15;1.70;;;;;;;20.47;60.18;102557.09;4987537;28;102609;-49
2021/09/07 09:00:05;;;;;;;6.03;2.50;;;;;;;20.48;60.56;102544.91;4988103;28;102293;-49
2021/09/07 09:02:39;;;;;;;3.13;2.20;;;;;;;20.47;60.24;102563.47;4988257;28;103785;-49
2021/09/07 09:05:07;;;;;;;3.08;2.30;;;;;;;20.48;60.45;102548.50;4987486;28;102777;-49
2021/09/07 09:07:34;;;;;;;5.50;2.27;;;;;;;20.48;60.45;102547.69;4988246;28;102712;-49
2021/09/07 09:10:03;;;;;;;3.53;2.28;;;;;;;20.48;60.10;102550.44;4987789;28;103282;-49
2021/09/07 09:12:32;;;;;;;2.03;1.85;;;;;;;20.48;60.15;102544.91;4987633;28;104727;-49
2021/09/07 09:15:01;;;;;;;5.40;2.30;;;;;;;20.48;60.30;102551.28;4986525;28;102371;-49
2021/09/07 09:17:30;;;;;;;4.40;2.00;;;;;;;20.50;60.28;102548.25;4984462;28;102466;-49
2021/09/07 09:19:59;;;;;;;2.25;1.90;;;;;;;20.49;60.18;102549.34;4991021;28;102967;-49
2021/09/07 09:22:48;;;;;;;3.30;2.10;;;;;;;20.48;59.95;102548.50;4981250;28;103635;-49
2021/09/07 09:25:35;;;;;;;3.72;2.30;;;;;;;20.49;60.07;102554.88;4986139;28;102202;-49
2021/09/07 09:28:18;;;;;;;2.80;1.85;;;;;;;20.49;60.10;102549.34;4996021;28;103647;-49
2021/09/07 09:30:47;;;;;;;3.55;1.98;;;;;;;20.49;60.27;102546.59;4984918;28;104093;-49
2021/09/07 09:33:16;;;;;;;2.05;1.90;;;;;;;20.48;60.14;102537.44;4985625;28;103951;-49
2021/09/07 09:35:50;;;;;;;5.13;2.38;;;;;;;20.48;59.91;102553.22;4984585;28;102355;-52
2021/09/07 09:38:20;;;;;;;3.95;2.10;;;;;;;20.48;60.05;102536.63;4984971;28;102709;-50
2021/09/07 09:40:57;;;;;;;4.68;1.83;;;;;;;20.49;59.62;102543.81;4984574;28;102533;-49
2021/09/07 09:43:29;;;;;;;2.58;1.92;;;;;;;20.48;59.68;102542.16;4987820;28;104000;-49
2021/09/07 09:45:57;;;;;;;2.90;2.13;;;;;;;20.47;59.89;102544.09;4972706;28;102177;-50
2021/09/07 09:48:26;;;;;;;3.38;1.90;;;;;;;20.48;59.57;102544.91;4987741;28;103753;-49
2021/09/07 09:50:55;;;;;;;3.42;2.00;;;;;;;20.47;59.70;102549.63;4986409;28;102764;-49
2021/09/07 09:53:22;;;;;;;4.93;1.95;;;;;;;20.46;59.82;102549.94;4977356;28;103920;-49
2021/09/07 09:55:50;;;;;;;3.33;1.77;;;;;;;20.46;59.61;102534.16;4979045;28;102841;-49
2021/09/07 09:58:20;;;;;;;3.55;1.75;;;;;;;20.46;59.73;102536.94;4979169;28;102050;-50
2021/09/07 10:00:47;;;;;;;2.63;1.95;;;;;;;20.47;59.81;102543.28;4989983;28;103758;-49
2021/09/07 10:03:14;;;;;;;2.50;2.05;;;;;;;20.47;59.89;102541.34;4986515;28;103926;-49
2021/09/07 10:05:42;;;;;;;2.42;2.00;;;;;;;20.47;59.81;102540.50;4982955;28;102879;-49
2021/09/07 10:08:13;;;;;;;3.13;1.90;;;;;;;20.46;59.52;102536.94;4984397;28;102997;-50
2021/09/07 10:10:49;;;;;;;1.98;1.83;;;;;;;20.45;59.58;102538.06;4985009;28;102356;-50
2021/09/07 10:13:21;;;;;;;3.95;2.90;;;;;;;20.45;59.49;102537.22;4978681;28;103949;-49
2021/09/07 10:16:00;;;;;;;3.03;1.63;;;;;;;20.44;59.22;102533.63;4982049;28;102637;-49
2021/09/07 10:21:08;;;;;;;2.85;2.08;;;;;;;20.44;59.72;102527.28;4979967;28;102227;-49
2021/09/07 10:26:50;;;;;;;4.32;2.13;;;;;;;20.43;59.13;102533.94;4987018;28;102168;-49
2021/09/07 10:29:38;;;;;;;2.28;1.80;;;;;;;20.43;59.51;102536.69;4982730;28;103269;-49
2021/09/07 10:32:22;;;;;;;3.67;2.05;;;;;;;20.43;59.26;102533.94;4986370;28;102650;-49
2021/09/07 10:35:09;;;;;;;8.50;2.22;;;;;;;20.41;59.04;102520.38;4986124;28;103756;-49
2021/09/07 10:38:08;;;;;;;3.05;1.95;;;;;;;20.42;59.13;102526.75;4984286;28;102556;-49
2021/09/07 10:40:44;;;;;;;2.72;2.00;;;;;;;20.42;59.22;102526.75;4972990;28;102570;-49
2021/09/07 10:43:11;;;;;;;3.45;2.00;;;;;;;20.42;59.97;102527.56;4985704;28;102825;-49
2021/09/07 10:45:40;;;;;;;3.13;2.08;;;;;;;20.42;59.73;102526.75;4985265;28;103947;-49
2021/09/07 10:48:34;;;;;;;3.00;2.10;;;;;;;20.40;59.48;102525.09;4983662;28;102800;-48
2021/09/07 10:51:05;;;;;;;2.90;1.90;;;;;;;20.40;59.90;102518.75;4972559;28;102367;-49
2021/09/07 10:53:32;;;;;;;2.30;1.80;;;;;;;20.38;59.83;102516.28;4984802;28;102501;-49
2021/09/07 10:56:25;;;;;;;2.25;1.90;;;;;;;20.39;59.37;102517.09;4983761;28;103588;-49
2021/09/07 10:58:51;;;;;;;2.85;1.98;;;;;;;20.37;59.50;102517.38;4985349;28;102679;-49
2021/09/07 11:01:27;;;;;;;2.28;1.45;;;;;;;20.37;59.28;102509.09;4984371;28;102640;-49
2021/09/07 11:04:31;;;;;;;1.77;1.50;;;;;;;20.36;59.38;102517.69;4982175;28;102632;-49
2021/09/07 11:07:20;;;;;;;3.83;2.35;;;;;;;20.35;59.52;102511.34;4982544;28;103756;-49
2021/09/07 11:09:51;;;;;;;2.92;1.98;;;;;;;20.35;59.44;102497.50;4984622;28;102551;-49
2021/09/07 11:12:25;;;;;;;2.10;1.90;;;;;;;20.35;59.63;102503.03;4985071;28;103246;-50
2021/09/07 11:15:03;;;;;;;2.17;1.65;;;;;;;20.35;59.65;102500.28;4986466;28;102302;-49
2021/09/07 11:17:32;;;;;;;1.75;1.45;;;;;;;20.35;59.89;102505.81;4985310;28;103151;-49
2021/09/07 11:19:59;;;;;;;3.38;1.70;;;;;;;20.35;59.74;102505.81;4981582;28;102574;-49
2021/09/07 11:22:27;;;;;;;3.05;1.70;;;;;;;20.35;59.83;102497.50;4984239;28;102916;-48
2021/09/07 11:25:04;;;;;;;2.85;1.40;;;;;;;20.35;59.60;102499.47;4992854;28;102571;-50
2021/09/07 11:27:52;;;;;;;2.08;1.60;;;;;;;20.34;59.36;102498.63;4984059;28;103924;-51
2021/09/07 11:30:27;;;;;;;2.60;1.83;;;;;;;20.34;59.90;102493.09;4978792;28;102968;-49